createdAt,value
2022-10-11T00:01:10.618Z,14.28
2022-10-11T00:03:37.324Z,14.26
2022-10-11T00:06:04.196Z,14.25
2022-10-11T00:08:31.549Z,14.24
2022-10-11T00:11:03.975Z,14.21
2022-10-11T00:13:30.643Z,14.20
2022-10-11T00:15:57.630Z,14.22
2022-10-11T00:18:24.668Z,14.22
2022-10-11T00:20:51.209Z,14.23
2022-10-11T00:23:17.688Z,14.25
2022-10-11T00:25:44.270Z,14.27
2022-10-11T00:28:10.778Z,14.32
2022-10-11T00:30:37.596Z,14.35
2022-10-11T00:33:04.034Z,14.39
2022-10-11T00:35:30.518Z,14.44
2022-10-11T00:37:57.117Z,14.49
2022-10-11T00:40:23.944Z,14.54
2022-10-11T00:42:50.463Z,14.59
2022-10-11T00:45:32.020Z,14.65
2022-10-11T00:48:09.762Z,14.72
2022-10-11T00:50:36.778Z,14.77
2022-10-11T00:53:08.601Z,14.80
2022-10-11T00:55:40.199Z,14.86
2022-10-11T00:58:07.448Z,14.92
2022-10-11T01:00:34.098Z,14.94
2022-10-11T01:03:01.121Z,14.97
2022-10-11T01:05:29.919Z,15.00
2022-10-11T01:07:59.176Z,15.01
2022-10-11T01:10:27.460Z,15.02
2022-10-11T01:12:59.859Z,15.02
2022-10-11T01:15:42.402Z,15.02
2022-10-11T01:18:21.771Z,15.03
2022-10-11T01:20:48.209Z,15.04
2022-10-11T01:23:33.751Z,15.04
2022-10-11T01:26:17.973Z,15.05
2022-10-11T01:29:03.055Z,15.07
2022-10-11T01:31:58.532Z,15.08
2022-10-11T01:34:31.042Z,15.08
2022-10-11T01:37:09.404Z,15.11
2022-10-11T01:39:48.540Z,15.11
2022-10-11T01:42:17.941Z,15.12
2022-10-11T01:44:47.464Z,15.13
2022-10-11T01:47:14.071Z,15.16
2022-10-11T01:49:40.582Z,15.18
2022-10-11T01:52:07.855Z,15.19
2022-10-11T01:55:09.981Z,15.17
2022-10-11T01:57:55.665Z,15.20
2022-10-11T02:00:29.887Z,15.23
2022-10-11T02:03:17.628Z,15.24
2022-10-11T02:05:55.935Z,15.25
2022-10-11T02:08:38.439Z,15.28
2022-10-11T02:11:09.281Z,15.32
2022-10-11T02:13:35.794Z,15.36
2022-10-11T02:16:09.407Z,15.38
2022-10-11T02:18:41.192Z,15.40
2022-10-11T02:21:12.275Z,15.41
2022-10-11T02:23:53.526Z,15.44
2022-10-11T02:26:23.381Z,15.47
2022-10-11T02:28:53.039Z,15.48
2022-10-11T02:31:21.013Z,15.50
2022-10-11T02:34:02.032Z,15.52
2022-10-11T02:36:45.648Z,15.53
2022-10-11T02:39:35.403Z,15.56
2022-10-11T02:42:06.578Z,15.58
2022-10-11T02:44:38.186Z,15.59
2022-10-11T02:47:05.748Z,15.60
2022-10-11T02:49:32.631Z,15.61
2022-10-11T02:51:59.447Z,15.60
2022-10-11T02:54:26.426Z,15.61
2022-10-11T02:56:53.120Z,15.60
2022-10-11T02:59:19.648Z,15.60
2022-10-11T03:01:46.240Z,15.59
2022-10-11T03:04:12.939Z,15.59
2022-10-11T03:06:39.675Z,15.58
2022-10-11T03:09:06.510Z,15.58
2022-10-11T03:11:33.001Z,15.58
2022-10-11T03:13:59.455Z,15.55
2022-10-11T03:16:26.143Z,15.55
2022-10-11T03:18:52.590Z,15.55
2022-10-11T03:21:19.071Z,15.54
2022-10-11T03:23:45.570Z,15.53
2022-10-11T03:26:12.109Z,15.52
2022-10-11T03:28:38.614Z,15.54
2022-10-11T03:31:05.262Z,15.54
2022-10-11T03:33:31.780Z,15.54
2022-10-11T03:35:58.258Z,15.54
2022-10-11T03:38:24.902Z,15.54
2022-10-11T03:40:51.411Z,15.55
2022-10-11T03:43:17.986Z,15.56
2022-10-11T03:45:44.501Z,15.56
2022-10-11T03:48:11.065Z,15.58
2022-10-11T03:50:38.160Z,15.60
2022-10-11T03:53:06.651Z,15.59
2022-10-11T03:55:33.252Z,15.63
2022-10-11T03:58:00.069Z,15.63
2022-10-11T04:00:26.601Z,15.64
2022-10-11T04:02:53.150Z,15.63
2022-10-11T04:05:19.631Z,15.64
2022-10-11T04:07:46.147Z,15.63
2022-10-11T04:10:12.672Z,15.64
2022-10-11T04:12:39.136Z,15.64
2022-10-11T04:15:06.800Z,15.64
2022-10-11T04:17:33.706Z,15.64
2022-10-11T04:20:00.240Z,15.66
2022-10-11T04:22:26.812Z,15.65
2022-10-11T04:24:53.276Z,15.67
2022-10-11T04:27:19.870Z,15.67
2022-10-11T04:29:46.419Z,15.67
2022-10-11T04:32:12.925Z,15.67
2022-10-11T04:34:39.445Z,15.67
2022-10-11T04:37:06.037Z,15.68
2022-10-11T04:39:32.497Z,15.67
2022-10-11T04:41:58.971Z,15.68
2022-10-11T04:44:25.448Z,15.68
2022-10-11T04:46:51.884Z,15.68
2022-10-11T04:49:18.490Z,15.68
2022-10-11T04:51:45.025Z,15.70
2022-10-11T04:54:11.597Z,15.70
2022-10-11T04:56:38.162Z,15.70
2022-10-11T04:59:04.650Z,15.72
2022-10-11T05:01:31.255Z,15.72
2022-10-11T05:03:57.751Z,15.73
2022-10-11T05:06:24.568Z,15.73
2022-10-11T05:08:51.137Z,15.74
2022-10-11T05:11:17.872Z,15.74
2022-10-11T05:13:45.798Z,15.73
2022-10-11T05:16:13.742Z,15.72
2022-10-11T05:18:40.779Z,15.63
2022-10-11T05:21:16.332Z,15.69
2022-10-11T05:23:43.187Z,15.69
2022-10-11T05:26:09.942Z,15.69
2022-10-11T05:28:36.685Z,15.66
2022-10-11T05:31:04.037Z,15.65
2022-10-11T05:33:30.912Z,15.62
2022-10-11T05:35:57.628Z,15.62
2022-10-11T05:38:24.360Z,15.60
2022-10-11T05:40:51.131Z,15.58
2022-10-11T05:43:17.784Z,15.59
2022-10-11T05:45:44.932Z,15.59
2022-10-11T05:48:12.759Z,15.58
2022-10-11T05:50:39.526Z,15.57
2022-10-11T05:53:06.591Z,15.59
2022-10-11T05:55:41.047Z,15.58
2022-10-11T05:58:10.212Z,15.58
2022-10-11T06:00:37.352Z,15.59
2022-10-11T06:03:05.429Z,15.58
2022-10-11T06:05:32.217Z,15.59
2022-10-11T06:07:58.691Z,15.61
2022-10-11T06:10:25.852Z,15.63
2022-10-11T06:12:52.420Z,15.64
2022-10-11T06:15:19.099Z,15.65
2022-10-11T06:17:47.296Z,15.66
2022-10-11T06:20:14.113Z,15.58
2022-10-11T06:22:40.724Z,15.67
2022-10-11T06:25:07.639Z,15.70
2022-10-11T06:27:34.242Z,15.67
2022-10-11T06:30:00.868Z,15.67
2022-10-11T06:32:27.579Z,15.65
2022-10-11T06:34:54.095Z,15.64
2022-10-11T06:37:20.718Z,15.63
2022-10-11T06:39:47.245Z,15.62
2022-10-11T06:42:13.783Z,15.60
2022-10-11T06:44:40.253Z,15.60
2022-10-11T06:47:07.840Z,15.59
2022-10-11T06:49:34.621Z,15.59
2022-10-11T06:52:01.342Z,15.59
2022-10-11T06:54:27.895Z,15.60
2022-10-11T06:56:54.398Z,15.64
2022-10-11T06:59:21.017Z,15.68
2022-10-11T07:01:48.085Z,15.72
2022-10-11T07:04:14.596Z,15.80
2022-10-11T07:06:41.690Z,15.87
2022-10-11T07:09:08.355Z,15.98
2022-10-11T07:11:35.586Z,16.08
2022-10-11T07:14:04.800Z,16.19
2022-10-11T07:16:31.311Z,16.31
2022-10-11T07:19:00.963Z,16.43
2022-10-11T07:21:28.952Z,16.55
2022-10-11T07:23:55.423Z,16.66
2022-10-11T07:26:22.051Z,16.77
2022-10-11T07:28:48.667Z,16.85
2022-10-11T07:31:18.797Z,16.96
2022-10-11T07:33:46.064Z,17.04
2022-10-11T07:36:13.229Z,17.11
2022-10-11T07:38:41.097Z,17.17
2022-10-11T07:41:08.506Z,17.27
2022-10-11T07:43:36.314Z,17.32
2022-10-11T07:46:03.948Z,17.36
2022-10-11T07:48:31.983Z,17.43
2022-10-11T07:51:17.576Z,17.46
2022-10-11T07:53:48.954Z,17.53
2022-10-11T07:56:18.653Z,17.58
2022-10-11T07:58:49.144Z,17.61
2022-10-11T08:01:15.712Z,17.65
2022-10-11T08:03:42.217Z,17.68
2022-10-11T08:06:10.294Z,17.71
2022-10-11T08:08:37.618Z,17.74
2022-10-11T08:11:05.651Z,17.76
2022-10-11T08:13:32.568Z,17.79
2022-10-11T08:15:59.309Z,17.81
2022-10-11T08:18:26.346Z,17.82
2022-10-11T08:20:53.231Z,17.81
2022-10-11T08:23:19.994Z,17.83
2022-10-11T08:25:47.888Z,17.83
2022-10-11T08:28:14.936Z,17.87
2022-10-11T08:30:50.653Z,17.86
2022-10-11T08:33:22.324Z,17.88
2022-10-11T08:35:49.724Z,17.92
2022-10-11T08:38:17.207Z,17.95
2022-10-11T08:40:53.267Z,17.98
2022-10-11T08:43:45.870Z,17.98
2022-10-11T08:46:14.992Z,18.02
2022-10-11T08:48:45.940Z,18.01
2022-10-11T08:51:22.965Z,17.99
2022-10-11T08:53:57.057Z,17.98
2022-10-11T08:56:25.625Z,17.98
2022-10-11T08:59:12.094Z,17.94
2022-10-11T09:01:44.602Z,17.90
2022-10-11T09:04:14.560Z,17.89
2022-10-11T09:06:53.845Z,17.84
2022-10-11T09:09:36.780Z,17.82
2022-10-11T09:12:17.342Z,17.78
2022-10-11T09:15:11.818Z,17.76
2022-10-11T09:18:00.162Z,17.73
2022-10-11T09:20:35.759Z,17.76
2022-10-11T09:23:35.169Z,17.76
2022-10-11T09:26:10.840Z,17.81
2022-10-11T09:29:01.372Z,17.82
2022-10-11T09:31:28.671Z,17.87
2022-10-11T09:33:55.785Z,17.95
2022-10-11T09:36:37.594Z,17.98
2022-10-11T09:39:18.374Z,18.08
2022-10-11T09:42:02.203Z,18.13
2022-10-11T09:44:50.167Z,18.23
2022-10-11T09:47:20.158Z,18.30
2022-10-11T09:49:52.883Z,18.35
2022-10-11T09:52:22.718Z,18.43
2022-10-11T09:54:55.894Z,18.47
2022-10-11T09:57:28.162Z,18.56
2022-10-11T10:00:06.956Z,18.63
2022-10-11T10:02:44.964Z,18.68
2022-10-11T10:05:11.382Z,18.80
2022-10-11T10:07:40.041Z,18.91
2022-10-11T10:10:27.094Z,18.96
2022-10-11T10:12:59.342Z,19.02
2022-10-11T10:15:34.801Z,19.07
2022-10-11T10:18:02.914Z,19.11
2022-10-11T10:20:35.147Z,19.14
2022-10-11T10:23:23.883Z,19.20
2022-10-11T10:25:50.572Z,19.32
2022-10-11T10:28:25.877Z,19.38
2022-10-11T10:30:53.740Z,19.46
2022-10-11T10:33:22.286Z,19.51
2022-10-11T10:35:53.741Z,19.57
2022-10-11T10:38:34.844Z,19.61
2022-10-11T10:41:04.453Z,19.69
2022-10-11T10:43:36.095Z,19.76
2022-10-11T10:46:37.059Z,19.87
2022-10-11T10:49:48.502Z,20.01
2022-10-11T10:52:17.852Z,20.11
2022-10-11T10:54:52.065Z,20.21
2022-10-11T10:57:32.051Z,20.28
2022-10-11T11:00:15.719Z,20.38
2022-10-11T11:03:03.767Z,20.40
2022-10-11T11:05:55.383Z,20.41
2022-10-11T11:08:27.982Z,20.38
2022-10-11T11:11:18.860Z,20.36
2022-10-11T11:13:58.423Z,20.33
2022-10-11T11:16:49.433Z,20.36
2022-10-11T11:19:18.604Z,20.39
2022-10-11T11:22:04.390Z,20.44
2022-10-11T11:24:50.736Z,20.46
2022-10-11T11:27:48.025Z,20.54
2022-10-11T11:30:22.482Z,20.66
2022-10-11T11:33:03.635Z,20.72
2022-10-11T11:35:39.175Z,20.79
2022-10-11T11:38:46.438Z,20.84
2022-10-11T11:41:55.250Z,20.87
2022-10-11T11:44:28.175Z,20.92
2022-10-11T11:47:09.307Z,20.90
2022-10-11T11:49:38.504Z,20.86
2022-10-11T11:52:15.646Z,20.85
2022-10-11T11:55:03.736Z,20.79
2022-10-11T11:57:57.917Z,20.76
2022-10-11T12:00:30.778Z,20.77
2022-10-11T12:03:11.765Z,20.76
2022-10-11T12:05:38.504Z,20.75
2022-10-11T12:08:27.932Z,20.76
2022-10-11T12:10:59.617Z,20.74
2022-10-11T12:13:32.372Z,20.79
2022-10-11T12:16:08.101Z,20.81
2022-10-11T12:18:39.336Z,20.91
2022-10-11T12:21:20.860Z,20.92
2022-10-11T12:23:49.833Z,20.89
2022-10-11T12:26:28.611Z,20.95
2022-10-11T12:29:02.346Z,20.99
2022-10-11T12:31:32.070Z,21.05
2022-10-11T12:34:00.978Z,21.12
2022-10-11T12:36:47.560Z,21.24
2022-10-11T12:39:19.966Z,21.27
2022-10-11T12:41:49.486Z,21.27
2022-10-11T12:44:19.166Z,21.32
2022-10-11T12:46:51.721Z,21.32
2022-10-11T12:49:30.286Z,21.32
2022-10-11T12:52:18.321Z,21.37
2022-10-11T12:55:02.775Z,21.45
2022-10-11T12:58:04.309Z,21.43
2022-10-11T13:00:34.121Z,21.46
2022-10-11T13:03:00.527Z,21.41
2022-10-11T13:05:44.943Z,21.40
2022-10-11T13:08:18.761Z,21.34
2022-10-11T13:10:47.538Z,21.34
2022-10-11T13:13:31.971Z,21.31
2022-10-11T13:16:05.198Z,21.27
2022-10-11T13:18:31.925Z,21.26
2022-10-11T13:20:58.446Z,21.27
2022-10-11T13:23:35.122Z,21.26
2022-10-11T13:26:02.475Z,21.30
2022-10-11T13:28:34.146Z,21.27
2022-10-11T13:31:04.175Z,21.30
2022-10-11T13:33:32.465Z,21.20
2022-10-11T13:36:01.709Z,21.33
2022-10-11T13:38:34.864Z,21.39
2022-10-11T13:41:05.087Z,21.45
2022-10-11T13:43:32.312Z,21.47
2022-10-11T13:46:00.589Z,21.43
2022-10-11T13:48:31.741Z,21.37
2022-10-11T13:51:34.921Z,21.31
2022-10-11T13:54:13.613Z,21.30
2022-10-11T13:56:49.017Z,21.29
2022-10-11T13:59:21.622Z,21.24
2022-10-11T14:01:49.846Z,21.23
2022-10-11T14:04:16.799Z,21.20
2022-10-11T14:06:43.210Z,21.17
2022-10-11T14:09:26.385Z,21.11
2022-10-11T14:11:53.044Z,21.09
2022-10-11T14:14:30.058Z,21.01
2022-10-11T14:17:04.369Z,20.97
2022-10-11T14:19:31.127Z,20.92
2022-10-11T14:21:58.004Z,20.93
2022-10-11T14:24:24.499Z,20.87
2022-10-11T14:26:53.384Z,20.82
2022-10-11T14:29:34.538Z,20.82
2022-10-11T14:32:18.901Z,20.84
2022-10-11T14:34:47.637Z,20.83
2022-10-11T14:37:18.325Z,20.79
2022-10-11T14:39:45.480Z,20.82
2022-10-11T14:42:11.924Z,20.78
2022-10-11T14:44:38.682Z,20.74
2022-10-11T14:47:06.095Z,20.74
2022-10-11T14:49:36.337Z,20.76
2022-10-11T14:52:05.114Z,20.75
2022-10-11T14:54:33.499Z,20.69
2022-10-11T14:57:03.579Z,20.61
2022-10-11T14:59:34.204Z,20.43
2022-10-11T15:02:01.733Z,20.44
2022-10-11T15:04:28.585Z,20.39
2022-10-11T15:06:56.397Z,20.33
2022-10-11T15:09:27.917Z,20.26
2022-10-11T15:11:55.030Z,20.21
2022-10-11T15:14:23.122Z,20.16
2022-10-11T15:16:49.653Z,19.99
2022-10-11T15:19:18.915Z,20.02
2022-10-11T15:21:45.646Z,20.00
2022-10-11T15:24:12.947Z,19.99
2022-10-11T15:26:39.964Z,19.94
2022-10-11T15:29:09.892Z,19.86
2022-10-11T15:31:36.391Z,19.80
2022-10-11T15:34:03.080Z,19.78
2022-10-11T15:36:29.757Z,19.67
2022-10-11T15:38:56.497Z,19.54
2022-10-11T15:41:23.104Z,19.48
2022-10-11T15:43:49.685Z,19.37
2022-10-11T15:46:20.071Z,19.30
2022-10-11T15:48:47.485Z,19.21
2022-10-11T15:51:15.356Z,19.14
2022-10-11T15:53:41.965Z,19.06
2022-10-11T15:56:12.426Z,18.98
2022-10-11T15:58:40.584Z,18.94
2022-10-11T16:01:08.845Z,18.80
2022-10-11T16:03:36.137Z,18.84
2022-10-11T16:06:05.524Z,18.80
2022-10-11T16:08:33.108Z,18.77
2022-10-11T16:11:00.534Z,18.73
2022-10-11T16:13:27.196Z,18.70
2022-10-11T16:15:54.078Z,18.67
2022-10-11T16:18:21.504Z,18.65
2022-10-11T16:20:50.027Z,18.63
2022-10-11T16:23:16.592Z,18.61
2022-10-11T16:25:43.353Z,18.60
2022-10-11T16:28:10.454Z,18.59
2022-10-11T16:30:42.317Z,18.58
2022-10-11T16:33:09.230Z,18.58
2022-10-11T16:35:35.946Z,18.57
2022-10-11T16:38:02.616Z,18.55
2022-10-11T16:40:29.080Z,18.53
2022-10-11T16:42:56.085Z,18.53
2022-10-11T16:45:23.012Z,18.53
2022-10-11T16:47:50.155Z,18.51
2022-10-11T16:50:16.712Z,18.47
2022-10-11T16:52:43.329Z,18.45
2022-10-11T16:55:10.267Z,18.42
2022-10-11T16:57:37.000Z,18.39
2022-10-11T17:00:06.683Z,18.36
2022-10-11T17:02:33.361Z,18.33
2022-10-11T17:05:00.174Z,18.30
2022-10-11T17:07:27.592Z,18.28
2022-10-11T17:09:54.075Z,18.26
2022-10-11T17:12:23.680Z,18.26
2022-10-11T17:14:51.157Z,18.26
2022-10-11T17:17:18.790Z,18.22
2022-10-11T17:19:45.787Z,18.19
2022-10-11T17:22:14.908Z,18.17
2022-10-11T17:24:41.443Z,18.15
2022-10-11T17:27:08.539Z,18.11
2022-10-11T17:29:35.461Z,18.07
2022-10-11T17:32:02.367Z,18.02
2022-10-11T17:34:28.979Z,18.01
2022-10-11T17:36:55.448Z,17.97
2022-10-11T17:39:23.629Z,17.94
2022-10-11T17:41:50.287Z,17.80
2022-10-11T17:44:17.273Z,17.84
2022-10-11T17:46:43.871Z,17.82
2022-10-11T17:49:11.598Z,17.77
2022-10-11T17:51:39.159Z,17.74
2022-10-11T17:54:05.685Z,17.71
2022-10-11T17:56:37.747Z,17.70
2022-10-11T17:59:04.732Z,17.68
2022-10-11T18:01:31.411Z,17.67
2022-10-11T18:04:00.769Z,17.67
2022-10-11T18:06:29.946Z,17.68
2022-10-11T18:08:59.204Z,17.69
2022-10-11T18:11:25.766Z,17.71
2022-10-11T18:13:52.879Z,17.72
2022-10-11T18:16:23.216Z,17.71
2022-10-11T18:18:50.268Z,17.73
2022-10-11T18:21:16.814Z,17.73
2022-10-11T18:23:43.276Z,17.73
2022-10-11T18:26:13.709Z,17.73
2022-10-11T18:28:41.065Z,17.72
2022-10-11T18:31:14.250Z,17.70
2022-10-11T18:33:42.078Z,17.68
2022-10-11T18:36:10.140Z,17.67
2022-10-11T18:38:36.763Z,17.54
2022-10-11T18:41:08.028Z,17.60
2022-10-11T18:43:35.100Z,17.61
2022-10-11T18:46:09.845Z,17.58
2022-10-11T18:48:36.415Z,17.56
2022-10-11T18:51:07.859Z,17.52
2022-10-11T18:53:35.577Z,17.51
2022-10-11T18:56:04.568Z,17.48
2022-10-11T18:58:32.591Z,17.46
2022-10-11T19:01:11.297Z,17.43
2022-10-11T19:03:38.621Z,17.43
2022-10-11T19:06:07.964Z,17.41
2022-10-11T19:08:34.908Z,17.41
2022-10-11T19:11:08.936Z,17.41
2022-10-11T19:13:35.872Z,17.40
2022-10-11T19:16:05.421Z,17.40
2022-10-11T19:18:32.719Z,17.41
2022-10-11T19:21:08.104Z,17.40
2022-10-11T19:23:36.885Z,17.41
2022-10-11T19:26:03.785Z,17.41
2022-10-11T19:28:30.650Z,17.41
2022-10-11T19:31:05.721Z,17.40
2022-10-11T19:33:33.399Z,17.40
2022-10-11T19:36:01.699Z,17.39
2022-10-11T19:38:29.129Z,17.39
2022-10-11T19:40:55.828Z,17.36
2022-10-11T19:43:23.353Z,17.36
2022-10-11T19:45:49.799Z,17.36
2022-10-11T19:48:16.402Z,17.36
2022-10-11T19:50:42.902Z,17.35
2022-10-11T19:53:09.490Z,17.34
2022-10-11T19:55:36.087Z,17.33
2022-10-11T19:58:08.069Z,17.32
2022-10-11T20:00:34.862Z,17.29
2022-10-11T20:03:01.433Z,17.28
2022-10-11T20:05:28.028Z,17.25
2022-10-11T20:07:54.504Z,17.22
2022-10-11T20:10:21.011Z,17.17
2022-10-11T20:12:47.538Z,17.13
2022-10-11T20:15:14.154Z,17.11
2022-10-11T20:17:40.659Z,17.06
2022-10-11T20:20:08.061Z,17.00
2022-10-11T20:22:35.159Z,16.94
2022-10-11T20:25:20.662Z,16.86
2022-10-11T20:28:05.930Z,16.81
2022-10-11T20:30:51.309Z,16.77
2022-10-11T20:33:36.167Z,16.71
2022-10-11T20:36:23.008Z,16.67
2022-10-11T20:39:08.266Z,16.64
2022-10-11T20:41:53.506Z,16.60
2022-10-11T20:44:38.596Z,16.58
2022-10-11T20:47:23.735Z,16.57
2022-10-11T20:50:09.305Z,16.57
2022-10-11T20:52:54.376Z,16.56
2022-10-11T20:55:39.443Z,16.55
2022-10-11T20:58:24.263Z,16.55
2022-10-11T21:01:14.369Z,16.54
2022-10-11T21:04:01.319Z,16.54
2022-10-11T21:06:48.126Z,16.53
2022-10-11T21:09:33.543Z,16.50
2022-10-11T21:12:19.121Z,16.49
2022-10-11T21:15:04.595Z,16.49
2022-10-11T21:17:51.055Z,16.48
2022-10-11T21:20:42.690Z,16.47
2022-10-11T21:23:27.795Z,16.46
2022-10-11T21:26:14.488Z,16.45
2022-10-11T21:28:59.821Z,16.44
2022-10-11T21:31:44.904Z,16.41
2022-10-11T21:34:29.847Z,16.40
2022-10-11T21:37:15.196Z,16.37
2022-10-11T21:40:00.127Z,16.34
2022-10-11T21:42:45.488Z,16.29
2022-10-11T21:45:30.834Z,16.24
2022-10-11T21:48:15.808Z,16.19
2022-10-11T21:51:00.962Z,16.13
2022-10-11T21:53:46.111Z,16.08
2022-10-11T21:56:31.293Z,16.03
2022-10-11T21:59:16.258Z,15.98
2022-10-11T22:02:02.245Z,15.92
2022-10-11T22:04:47.545Z,15.86
2022-10-11T22:07:32.880Z,15.82
2022-10-11T22:10:18.326Z,15.77
2022-10-11T22:13:04.144Z,15.73
2022-10-11T22:15:49.521Z,15.68
2022-10-11T22:18:35.060Z,15.64
2022-10-11T22:21:22.187Z,15.59
2022-10-11T22:24:07.389Z,15.55
2022-10-11T22:26:52.266Z,15.53
2022-10-11T22:29:37.531Z,15.50
2022-10-11T22:32:22.657Z,15.48
2022-10-11T22:35:08.136Z,15.46
2022-10-11T22:37:53.634Z,15.46
2022-10-11T22:40:40.059Z,15.47
2022-10-11T22:43:25.645Z,15.47
2022-10-11T22:46:10.892Z,15.48
2022-10-11T22:48:56.040Z,15.50
2022-10-11T22:51:41.331Z,15.51
2022-10-11T22:54:26.746Z,15.55
2022-10-11T22:57:11.908Z,15.54
2022-10-11T22:59:57.378Z,15.55
2022-10-11T23:02:42.323Z,15.57
2022-10-11T23:05:27.171Z,15.59
2022-10-11T23:08:12.605Z,15.61
2022-10-11T23:11:05.548Z,15.62
2022-10-11T23:13:50.655Z,15.65
2022-10-11T23:16:35.579Z,15.66
2022-10-11T23:19:20.679Z,15.68
2022-10-11T23:22:05.922Z,15.70
2022-10-11T23:24:50.755Z,15.72
2022-10-11T23:27:36.336Z,15.72
2022-10-11T23:30:21.399Z,15.72
2022-10-11T23:33:06.310Z,15.74
2022-10-11T23:35:51.673Z,15.76
2022-10-11T23:38:36.752Z,15.77
2022-10-11T23:41:23.102Z,15.81
2022-10-11T23:44:08.291Z,15.83
2022-10-11T23:46:53.355Z,15.85
2022-10-11T23:49:38.914Z,15.87
2022-10-11T23:52:23.743Z,15.88
2022-10-11T23:55:09.240Z,15.91
2022-10-11T23:57:54.390Z,15.91
